sensor_id;sensor_type;location;lat;lon;timestamp;P1;durP1;ratioP1;P2;durP2;ratioP2
68523;SDS011;55524;51.380;13.372;2022-12-18T00:00:53;49.58;;;13.82;;
68523;SDS011;55524;51.380;13.372;2022-12-18T00:03:34;47.08;;;13.85;;
68523;SDS011;55524;51.380;13.372;2022-12-18T00:06:09;53.10;;;13.88;;
68523;SDS011;55524;51.380;13.372;2022-12-18T00:08:49;58.75;;;14.05;;
68523;SDS011;55524;51.380;13.372;2022-12-18T00:11:21;72.53;;;16.80;;
68523;SDS011;55524;51.380;13.372;2022-12-18T00:14:02;51.08;;;15.85;;
68523;SDS011;55524;51.380;13.372;2022-12-18T00:16:37;66.72;;;15.45;;
68523;SDS011;55524;51.380;13.372;2022-12-18T00:19:23;50.83;;;14.07;;
68523;SDS011;55524;51.380;13.372;2022-12-18T00:22:24;57.60;;;15.77;;
68523;SDS011;55524;51.380;13.372;2022-12-18T00:25:06;58.22;;;15.18;;
68523;SDS011;55524;51.380;13.372;2022-12-18T00:27:52;53.47;;;14.80;;
68523;SDS011;55524;51.380;13.372;2022-12-18T00:30:42;50.63;;;14.40;;
68523;SDS011;55524;51.380;13.372;2022-12-18T00:33:20;51.97;;;13.77;;
68523;SDS011;55524;51.380;13.372;2022-12-18T00:38:59;45.17;;;13.73;;
68523;SDS011;55524;51.380;13.372;2022-12-18T00:41:31;42.00;;;14.05;;
68523;SDS011;55524;51.380;13.372;2022-12-18T00:44:28;44.10;;;13.55;;
68523;SDS011;55524;51.380;13.372;2022-12-18T00:47:38;48.58;;;12.75;;
68523;SDS011;55524;51.380;13.372;2022-12-18T00:50:34;37.40;;;11.10;;
68523;SDS011;55524;51.380;13.372;2022-12-18T00:53:38;37.85;;;12.00;;
68523;SDS011;55524;51.380;13.372;2022-12-18T00:56:08;43.97;;;12.10;;
68523;SDS011;55524;51.380;13.372;2022-12-18T00:58:48;52.38;;;12.68;;
68523;SDS011;55524;51.380;13.372;2022-12-18T01:01:43;44.88;;;13.05;;
68523;SDS011;55524;51.380;13.372;2022-12-18T01:04:16;36.25;;;11.80;;
68523;SDS011;55524;51.380;13.372;2022-12-18T01:07:11;38.20;;;13.55;;
68523;SDS011;55524;51.380;13.372;2022-12-18T01:09:46;37.28;;;12.57;;
68523;SDS011;55524;51.380;13.372;2022-12-18T01:12:33;44.70;;;13.88;;
68523;SDS011;55524;51.380;13.372;2022-12-18T01:14:59;43.47;;;13.15;;
68523;SDS011;55524;51.380;13.372;2022-12-18T01:17:38;45.38;;;14.60;;
68523;SDS011;55524;51.380;13.372;2022-12-18T01:20:14;41.53;;;12.40;;
68523;SDS011;55524;51.380;13.372;2022-12-18T01:22:49;45.78;;;12.65;;
68523;SDS011;55524;51.380;13.372;2022-12-18T01:25:16;39.13;;;13.07;;
68523;SDS011;55524;51.380;13.372;2022-12-18T01:27:57;41.45;;;14.40;;
68523;SDS011;55524;51.380;13.372;2022-12-18T01:30:43;37.13;;;13.20;;
68523;SDS011;55524;51.380;13.372;2022-12-18T01:33:09;42.33;;;14.38;;
68523;SDS011;55524;51.380;13.372;2022-12-18T01:35:56;45.40;;;13.25;;
68523;SDS011;55524;51.380;13.372;2022-12-18T01:38:22;42.83;;;14.13;;
68523;SDS011;55524;51.380;13.372;2022-12-18T01:43:44;42.42;;;13.27;;
68523;SDS011;55524;51.380;13.372;2022-12-18T01:46:35;48.13;;;14.38;;
68523;SDS011;55524;51.380;13.372;2022-12-18T01:49:21;45.63;;;13.45;;
68523;SDS011;55524;51.380;13.372;2022-12-18T01:51:51;46.17;;;14.40;;
68523;SDS011;55524;51.380;13.372;2022-12-18T01:54:20;39.78;;;14.18;;
68523;SDS011;55524;51.380;13.372;2022-12-18T01:57:07;42.80;;;13.55;;
68523;SDS011;55524;51.380;13.372;2022-12-18T01:59:52;40.00;;;13.80;;
68523;SDS011;55524;51.380;13.372;2022-12-18T02:02:30;43.65;;;13.45;;
68523;SDS011;55524;51.380;13.372;2022-12-18T02:05:08;38.03;;;12.70;;
68523;SDS011;55524;51.380;13.372;2022-12-18T02:08:08;41.17;;;13.75;;
68523;SDS011;55524;51.380;13.372;2022-12-18T02:19:04;36.70;;;13.60;;
68523;SDS011;55524;51.380;13.372;2022-12-18T02:25:40;39.35;;;13.63;;
68523;SDS011;55524;51.380;13.372;2022-12-18T02:28:30;34.60;;;12.40;;
68523;SDS011;55524;51.380;13.372;2022-12-18T02:31:16;41.65;;;13.52;;
68523;SDS011;55524;51.380;13.372;2022-12-18T02:33:51;38.75;;;13.30;;
68523;SDS011;55524;51.380;13.372;2022-12-18T02:36:25;38.65;;;12.88;;
68523;SDS011;55524;51.380;13.372;2022-12-18T02:39:01;41.40;;;13.15;;
68523;SDS011;55524;51.380;13.372;2022-12-18T02:41:35;39.92;;;14.02;;
68523;SDS011;55524;51.380;13.372;2022-12-18T02:44:12;36.00;;;12.57;;
68523;SDS011;55524;51.380;13.372;2022-12-18T02:47:20;36.28;;;11.30;;
68523;SDS011;55524;51.380;13.372;2022-12-18T03:01:09;33.35;;;10.73;;
68523;SDS011;55524;51.380;13.372;2022-12-18T03:06:58;42.03;;;10.25;;
68523;SDS011;55524;51.380;13.372;2022-12-18T03:09:49;42.33;;;10.95;;
68523;SDS011;55524;51.380;13.372;2022-12-18T03:12:40;38.22;;;10.68;;
68523;SDS011;55524;51.380;13.372;2022-12-18T03:15:37;33.85;;;9.68;;
68523;SDS011;55524;51.380;13.372;2022-12-18T03:18:21;53.47;;;12.45;;
68523;SDS011;55524;51.380;13.372;2022-12-18T03:21:26;40.38;;;10.65;;
68523;SDS011;55524;51.380;13.372;2022-12-18T03:24:17;47.97;;;12.15;;
68523;SDS011;55524;51.380;13.372;2022-12-18T03:26:50;45.88;;;11.75;;
68523;SDS011;55524;51.380;13.372;2022-12-18T03:29:40;43.50;;;10.25;;
68523;SDS011;55524;51.380;13.372;2022-12-18T03:32:25;41.95;;;11.05;;
68523;SDS011;55524;51.380;13.372;2022-12-18T03:35:05;46.80;;;11.90;;
68523;SDS011;55524;51.380;13.372;2022-12-18T03:38:03;53.05;;;12.63;;
68523;SDS011;55524;51.380;13.372;2022-12-18T03:49:43;44.45;;;10.75;;
68523;SDS011;55524;51.380;13.372;2022-12-18T03:55:45;40.55;;;11.20;;
68523;SDS011;55524;51.380;13.372;2022-12-18T03:58:37;44.22;;;12.02;;
68523;SDS011;55524;51.380;13.372;2022-12-18T04:01:28;51.15;;;11.90;;
68523;SDS011;55524;51.380;13.372;2022-12-18T04:04:05;47.33;;;12.05;;
68523;SDS011;55524;51.380;13.372;2022-12-18T04:06:51;43.10;;;10.52;;
68523;SDS011;55524;51.380;13.372;2022-12-18T04:09:33;53.03;;;12.70;;
68523;SDS011;55524;51.380;13.372;2022-12-18T04:12:08;42.63;;;11.38;;
68523;SDS011;55524;51.380;13.372;2022-12-18T04:14:37;45.75;;;11.90;;
68523;SDS011;55524;51.380;13.372;2022-12-18T04:17:18;42.45;;;10.77;;
68523;SDS011;55524;51.380;13.372;2022-12-18T04:19:56;50.72;;;13.32;;
68523;SDS011;55524;51.380;13.372;2022-12-18T04:22:48;53.53;;;11.77;;
68523;SDS011;55524;51.380;13.372;2022-12-18T04:30:42;54.15;;;11.98;;
68523;SDS011;55524;51.380;13.372;2022-12-18T04:33:19;49.75;;;12.02;;
68523;SDS011;55524;51.380;13.372;2022-12-18T04:35:54;45.42;;;10.70;;
68523;SDS011;55524;51.380;13.372;2022-12-18T04:38:32;45.13;;;10.45;;
68523;SDS011;55524;51.380;13.372;2022-12-18T04:41:07;39.45;;;10.00;;
68523;SDS011;55524;51.380;13.372;2022-12-18T04:43:48;47.65;;;11.40;;
68523;SDS011;55524;51.380;13.372;2022-12-18T04:46:40;42.05;;;10.70;;
68523;SDS011;55524;51.380;13.372;2022-12-18T04:49:21;49.65;;;10.75;;
68523;SDS011;55524;51.380;13.372;2022-12-18T04:52:22;49.42;;;11.82;;
68523;SDS011;55524;51.380;13.372;2022-12-18T04:57:52;46.78;;;11.25;;
68523;SDS011;55524;51.380;13.372;2022-12-18T05:00:46;50.80;;;11.95;;
68523;SDS011;55524;51.380;13.372;2022-12-18T05:03:19;48.05;;;10.98;;
68523;SDS011;55524;51.380;13.372;2022-12-18T05:05:54;34.85;;;10.07;;
68523;SDS011;55524;51.380;13.372;2022-12-18T05:08:41;42.00;;;10.13;;
68523;SDS011;55524;51.380;13.372;2022-12-18T05:11:16;37.13;;;10.10;;
68523;SDS011;55524;51.380;13.372;2022-12-18T05:14:03;39.53;;;9.40;;
68523;SDS011;55524;51.380;13.372;2022-12-18T05:16:32;40.67;;;10.43;;
68523;SDS011;55524;51.380;13.372;2022-12-18T05:19:01;42.45;;;11.30;;
68523;SDS011;55524;51.380;13.372;2022-12-18T05:21:27;38.08;;;11.10;;
68523;SDS011;55524;51.380;13.372;2022-12-18T05:24:02;45.80;;;11.68;;
68523;SDS011;55524;51.380;13.372;2022-12-18T05:26:38;33.25;;;8.98;;
68523;SDS011;55524;51.380;13.372;2022-12-18T05:29:07;37.00;;;9.93;;
68523;SDS011;55524;51.380;13.372;2022-12-18T05:31:53;41.83;;;9.85;;
68523;SDS011;55524;51.380;13.372;2022-12-18T05:34:20;39.72;;;10.68;;
68523;SDS011;55524;51.380;13.372;2022-12-18T05:36:55;40.40;;;11.50;;
68523;SDS011;55524;51.380;13.372;2022-12-18T05:39:24;47.95;;;10.48;;
68523;SDS011;55524;51.380;13.372;2022-12-18T05:41:50;39.22;;;10.32;;
68523;SDS011;55524;51.380;13.372;2022-12-18T05:44:17;48.58;;;10.85;;
68523;SDS011;55524;51.380;13.372;2022-12-18T05:47:03;38.38;;;11.25;;
68523;SDS011;55524;51.380;13.372;2022-12-18T05:49:29;45.30;;;10.32;;
68523;SDS011;55524;51.380;13.372;2022-12-18T05:52:04;33.40;;;9.70;;
68523;SDS011;55524;51.380;13.372;2022-12-18T05:54:39;39.47;;;10.27;;
68523;SDS011;55524;51.380;13.372;2022-12-18T05:57:09;52.53;;;12.45;;
68523;SDS011;55524;51.380;13.372;2022-12-18T05:59:41;37.90;;;9.77;;
68523;SDS011;55524;51.380;13.372;2022-12-18T06:02:10;40.08;;;9.57;;
68523;SDS011;55524;51.380;13.372;2022-12-18T06:04:56;35.28;;;9.32;;
68523;SDS011;55524;51.380;13.372;2022-12-18T06:07:25;42.25;;;10.13;;
68523;SDS011;55524;51.380;13.372;2022-12-18T06:10:03;42.83;;;10.10;;
68523;SDS011;55524;51.380;13.372;2022-12-18T06:12:52;37.22;;;9.07;;
68523;SDS011;55524;51.380;13.372;2022-12-18T06:15:25;35.25;;;10.25;;
68523;SDS011;55524;51.380;13.372;2022-12-18T06:17:51;32.63;;;9.82;;
68523;SDS011;55524;51.380;13.372;2022-12-18T06:20:23;38.35;;;9.25;;
68523;SDS011;55524;51.380;13.372;2022-12-18T06:22:57;38.03;;;9.80;;
68523;SDS011;55524;51.380;13.372;2022-12-18T06:25:41;41.92;;;9.70;;
68523;SDS011;55524;51.380;13.372;2022-12-18T06:28:13;40.38;;;9.63;;
68523;SDS011;55524;51.380;13.372;2022-12-18T06:30:48;43.17;;;9.98;;
68523;SDS011;55524;51.380;13.372;2022-12-18T06:33:35;43.35;;;9.32;;
68523;SDS011;55524;51.380;13.372;2022-12-18T06:36:22;32.55;;;8.68;;
68523;SDS011;55524;51.380;13.372;2022-12-18T06:41:33;43.38;;;9.93;;
68523;SDS011;55524;51.380;13.372;2022-12-18T06:46:58;36.15;;;8.55;;
68523;SDS011;55524;51.380;13.372;2022-12-18T06:49:33;49.95;;;10.20;;
68523;SDS011;55524;51.380;13.372;2022-12-18T06:51:59;42.75;;;10.30;;
68523;SDS011;55524;51.380;13.372;2022-12-18T06:54:34;53.70;;;10.98;;
68523;SDS011;55524;51.380;13.372;2022-12-18T06:57:09;43.88;;;10.88;;
68523;SDS011;55524;51.380;13.372;2022-12-18T06:59:38;53.88;;;10.07;;
68523;SDS011;55524;51.380;13.372;2022-12-18T07:02:25;42.78;;;9.90;;
68523;SDS011;55524;51.380;13.372;2022-12-18T07:04:51;49.72;;;11.93;;
68523;SDS011;55524;51.380;13.372;2022-12-18T07:07:37;51.25;;;11.68;;
68523;SDS011;55524;51.380;13.372;2022-12-18T07:10:19;47.42;;;11.32;;
68523;SDS011;55524;51.380;13.372;2022-12-18T07:12:57;33.97;;;9.40;;
68523;SDS011;55524;51.380;13.372;2022-12-18T07:15:27;40.13;;;11.10;;
68523;SDS011;55524;51.380;13.372;2022-12-18T07:18:14;47.97;;;11.23;;
68523;SDS011;55524;51.380;13.372;2022-12-18T07:21:10;42.90;;;9.93;;
68523;SDS011;55524;51.380;13.372;2022-12-18T07:23:39;44.35;;;10.73;;
68523;SDS011;55524;51.380;13.372;2022-12-18T07:26:10;39.42;;;10.63;;
68523;SDS011;55524;51.380;13.372;2022-12-18T07:28:46;47.72;;;10.68;;
68523;SDS011;55524;51.380;13.372;2022-12-18T07:31:23;37.22;;;10.00;;
68523;SDS011;55524;51.380;13.372;2022-12-18T07:33:54;37.08;;;10.77;;
68523;SDS011;55524;51.380;13.372;2022-12-18T07:36:35;43.10;;;9.57;;
68523;SDS011;55524;51.380;13.372;2022-12-18T07:39:07;41.80;;;10.02;;
68523;SDS011;55524;51.380;13.372;2022-12-18T07:41:42;49.22;;;12.00;;
68523;SDS011;55524;51.380;13.372;2022-12-18T07:44:31;55.40;;;11.40;;
68523;SDS011;55524;51.380;13.372;2022-12-18T07:47:00;47.33;;;10.85;;
68523;SDS011;55524;51.380;13.372;2022-12-18T07:49:32;50.60;;;12.45;;
68523;SDS011;55524;51.380;13.372;2022-12-18T07:52:13;42.83;;;11.65;;
68523;SDS011;55524;51.380;13.372;2022-12-18T07:54:48;49.35;;;13.93;;
68523;SDS011;55524;51.380;13.372;2022-12-18T07:57:28;46.40;;;11.25;;
68523;SDS011;55524;51.380;13.372;2022-12-18T08:00:13;39.72;;;11.30;;
68523;SDS011;55524;51.380;13.372;2022-12-18T08:03:05;42.28;;;11.15;;
68523;SDS011;55524;51.380;13.372;2022-12-18T08:05:41;44.15;;;10.98;;
68523;SDS011;55524;51.380;13.372;2022-12-18T08:08:19;43.13;;;11.75;;
68523;SDS011;55524;51.380;13.372;2022-12-18T08:10:54;41.63;;;11.35;;
68523;SDS011;55524;51.380;13.372;2022-12-18T08:13:27;39.30;;;11.23;;
68523;SDS011;55524;51.380;13.372;2022-12-18T08:16:18;40.83;;;11.63;;
68523;SDS011;55524;51.380;13.372;2022-12-18T08:19:00;43.97;;;11.45;;
68523;SDS011;55524;51.380;13.372;2022-12-18T08:21:35;47.90;;;13.60;;
68523;SDS011;55524;51.380;13.372;2022-12-18T08:24:31;39.67;;;11.32;;
68523;SDS011;55524;51.380;13.372;2022-12-18T08:27:21;41.08;;;11.35;;
68523;SDS011;55524;51.380;13.372;2022-12-18T08:29:59;48.75;;;13.52;;
68523;SDS011;55524;51.380;13.372;2022-12-18T08:32:26;35.67;;;11.23;;
68523;SDS011;55524;51.380;13.372;2022-12-18T08:35:22;40.92;;;11.13;;
68523;SDS011;55524;51.380;13.372;2022-12-18T08:38:02;36.10;;;10.73;;
68523;SDS011;55524;51.380;13.372;2022-12-18T08:40:34;39.97;;;10.90;;
68523;SDS011;55524;51.380;13.372;2022-12-18T08:43:09;45.15;;;12.60;;
68523;SDS011;55524;51.380;13.372;2022-12-18T08:45:57;44.45;;;12.40;;
68523;SDS011;55524;51.380;13.372;2022-12-18T08:48:45;45.92;;;15.38;;
68523;SDS011;55524;51.380;13.372;2022-12-18T08:51:35;40.28;;;12.35;;
68523;SDS011;55524;51.380;13.372;2022-12-18T08:54:09;34.75;;;10.75;;
68523;SDS011;55524;51.380;13.372;2022-12-18T08:56:47;37.92;;;10.60;;
68523;SDS011;55524;51.380;13.372;2022-12-18T08:59:35;39.60;;;11.70;;
68523;SDS011;55524;51.380;13.372;2022-12-18T09:02:01;47.33;;;12.73;;
68523;SDS011;55524;51.380;13.372;2022-12-18T09:04:36;37.45;;;12.60;;
68523;SDS011;55524;51.380;13.372;2022-12-18T09:07:02;42.97;;;14.02;;
68523;SDS011;55524;51.380;13.372;2022-12-18T09:09:41;42.22;;;15.75;;
68523;SDS011;55524;51.380;13.372;2022-12-18T09:12:33;43.05;;;14.00;;
68523;SDS011;55524;51.380;13.372;2022-12-18T09:15:10;43.85;;;12.20;;
68523;SDS011;55524;51.380;13.372;2022-12-18T09:18:20;40.28;;;11.68;;
68523;SDS011;55524;51.380;13.372;2022-12-18T09:20:48;37.63;;;11.63;;
68523;SDS011;55524;51.380;13.372;2022-12-18T09:23:18;41.67;;;10.30;;
68523;SDS011;55524;51.380;13.372;2022-12-18T09:25:47;34.45;;;10.10;;
68523;SDS011;55524;51.380;13.372;2022-12-18T09:28:36;36.90;;;10.40;;
68523;SDS011;55524;51.380;13.372;2022-12-18T09:31:15;37.78;;;11.45;;
68523;SDS011;55524;51.380;13.372;2022-12-18T09:34:21;37.90;;;10.73;;
68523;SDS011;55524;51.380;13.372;2022-12-18T09:37:08;32.80;;;10.82;;
68523;SDS011;55524;51.380;13.372;2022-12-18T09:39:34;38.25;;;10.43;;
68523;SDS011;55524;51.380;13.372;2022-12-18T09:42:25;41.97;;;10.95;;
68523;SDS011;55524;51.380;13.372;2022-12-18T09:45:12;33.38;;;10.15;;
68523;SDS011;55524;51.380;13.372;2022-12-18T09:48:00;86.88;;;12.88;;
68523;SDS011;55524;51.380;13.372;2022-12-18T09:50:33;33.67;;;10.85;;
68523;SDS011;55524;51.380;13.372;2022-12-18T09:53:06;35.40;;;11.93;;
68523;SDS011;55524;51.380;13.372;2022-12-18T09:55:53;42.10;;;13.40;;
68523;SDS011;55524;51.380;13.372;2022-12-18T10:01:28;50.45;;;12.70;;
68523;SDS011;55524;51.380;13.372;2022-12-18T10:04:05;41.58;;;12.77;;
68523;SDS011;55524;51.380;13.372;2022-12-18T10:07:00;36.90;;;12.48;;
68523;SDS011;55524;51.380;13.372;2022-12-18T10:18:11;37.42;;;11.05;;
68523;SDS011;55524;51.380;13.372;2022-12-18T10:21:41;35.97;;;12.43;;
68523;SDS011;55524;51.380;13.372;2022-12-18T10:27:34;40.70;;;12.27;;
68523;SDS011;55524;51.380;13.372;2022-12-18T10:30:04;42.92;;;12.38;;
68523;SDS011;55524;51.380;13.372;2022-12-18T10:32:49;37.65;;;11.80;;
68523;SDS011;55524;51.380;13.372;2022-12-18T10:43:51;41.10;;;12.02;;
68523;SDS011;55524;51.380;13.372;2022-12-18T10:47:04;38.17;;;11.80;;
68523;SDS011;55524;51.380;13.372;2022-12-18T10:49:46;41.00;;;12.82;;
68523;SDS011;55524;51.380;13.372;2022-12-18T10:52:26;36.28;;;12.60;;
68523;SDS011;55524;51.380;13.372;2022-12-18T10:57:30;40.55;;;13.13;;
68523;SDS011;55524;51.380;13.372;2022-12-18T11:00:01;42.83;;;13.00;;
68523;SDS011;55524;51.380;13.372;2022-12-18T11:02:49;42.65;;;12.98;;
68523;SDS011;55524;51.380;13.372;2022-12-18T11:11:50;34.55;;;11.88;;
68523;SDS011;55524;51.380;13.372;2022-12-18T11:17:17;35.03;;;12.48;;
68523;SDS011;55524;51.380;13.372;2022-12-18T11:23:15;40.33;;;12.15;;
68523;SDS011;55524;51.380;13.372;2022-12-18T11:25:55;39.38;;;12.85;;
68523;SDS011;55524;51.380;13.372;2022-12-18T11:33:42;41.20;;;14.10;;
68523;SDS011;55524;51.380;13.372;2022-12-18T11:36:20;42.40;;;12.57;;
68523;SDS011;55524;51.380;13.372;2022-12-18T11:38:52;39.33;;;13.57;;
68523;SDS011;55524;51.380;13.372;2022-12-18T11:41:56;46.75;;;13.70;;
68523;SDS011;55524;51.380;13.372;2022-12-18T11:47:15;40.50;;;13.70;;
68523;SDS011;55524;51.380;13.372;2022-12-18T11:49:54;42.65;;;14.02;;
68523;SDS011;55524;51.380;13.372;2022-12-18T11:52:31;41.72;;;13.45;;
68523;SDS011;55524;51.380;13.372;2022-12-18T12:01:15;38.58;;;13.27;;
68523;SDS011;55524;51.380;13.372;2022-12-18T12:15:25;42.90;;;13.95;;
68523;SDS011;55524;51.380;13.372;2022-12-18T12:19:22;37.90;;;14.05;;
68523;SDS011;55524;51.380;13.372;2022-12-18T12:40:27;43.08;;;13.65;;
68523;SDS011;55524;51.380;13.372;2022-12-18T12:43:25;41.70;;;13.25;;
68523;SDS011;55524;51.380;13.372;2022-12-18T12:48:46;31.83;;;12.68;;
68523;SDS011;55524;51.380;13.372;2022-12-18T12:51:51;40.55;;;12.93;;
68523;SDS011;55524;51.380;13.372;2022-12-18T12:54:25;32.33;;;12.23;;
68523;SDS011;55524;51.380;13.372;2022-12-18T12:57:16;42.95;;;14.43;;
68523;SDS011;55524;51.380;13.372;2022-12-18T13:05:26;48.15;;;12.27;;
68523;SDS011;55524;51.380;13.372;2022-12-18T13:08:31;37.78;;;12.75;;
68523;SDS011;55524;51.380;13.372;2022-12-18T13:11:28;32.70;;;11.38;;
68523;SDS011;55524;51.380;13.372;2022-12-18T13:14:36;37.97;;;12.20;;
68523;SDS011;55524;51.380;13.372;2022-12-18T13:17:27;33.28;;;11.85;;
68523;SDS011;55524;51.380;13.372;2022-12-18T13:22:46;39.90;;;12.13;;
68523;SDS011;55524;51.380;13.372;2022-12-18T13:48:49;45.17;;;12.48;;
68523;SDS011;55524;51.380;13.372;2022-12-18T13:51:51;36.58;;;12.30;;
68523;SDS011;55524;51.380;13.372;2022-12-18T14:02:55;35.35;;;11.45;;
68523;SDS011;55524;51.380;13.372;2022-12-18T14:05:42;39.25;;;12.02;;
68523;SDS011;55524;51.380;13.372;2022-12-18T14:08:26;30.55;;;11.63;;
68523;SDS011;55524;51.380;13.372;2022-12-18T14:11:28;41.05;;;12.25;;
68523;SDS011;55524;51.380;13.372;2022-12-18T14:14:28;38.00;;;11.82;;
68523;SDS011;55524;51.380;13.372;2022-12-18T14:17:15;35.95;;;10.85;;
68523;SDS011;55524;51.380;13.372;2022-12-18T14:20:22;39.25;;;11.15;;
68523;SDS011;55524;51.380;13.372;2022-12-18T14:26:03;34.17;;;10.82;;
68523;SDS011;55524;51.380;13.372;2022-12-18T14:34:51;40.22;;;11.43;;
68523;SDS011;55524;51.380;13.372;2022-12-18T14:41:22;41.22;;;11.68;;
68523;SDS011;55524;51.380;13.372;2022-12-18T14:44:18;46.30;;;12.40;;
68523;SDS011;55524;51.380;13.372;2022-12-18T14:47:01;38.50;;;12.65;;
68523;SDS011;55524;51.380;13.372;2022-12-18T14:49:50;26.65;;;9.82;;
68523;SDS011;55524;51.380;13.372;2022-12-18T14:52:39;28.40;;;9.82;;
68523;SDS011;55524;51.380;13.372;2022-12-18T14:55:46;26.60;;;9.70;;
68523;SDS011;55524;51.380;13.372;2022-12-18T14:58:22;30.20;;;9.40;;
68523;SDS011;55524;51.380;13.372;2022-12-18T15:00:57;31.77;;;9.93;;
68523;SDS011;55524;51.380;13.372;2022-12-18T15:03:35;27.92;;;9.50;;
68523;SDS011;55524;51.380;13.372;2022-12-18T15:09:24;34.25;;;10.95;;
68523;SDS011;55524;51.380;13.372;2022-12-18T15:12:15;30.40;;;8.77;;
68523;SDS011;55524;51.380;13.372;2022-12-18T15:15:02;27.08;;;9.75;;
68523;SDS011;55524;51.380;13.372;2022-12-18T15:26:21;36.92;;;11.55;;
68523;SDS011;55524;51.380;13.372;2022-12-18T15:28:56;31.45;;;9.68;;
68523;SDS011;55524;51.380;13.372;2022-12-18T15:31:57;31.40;;;8.77;;
68523;SDS011;55524;51.380;13.372;2022-12-18T15:34:43;34.22;;;9.70;;
68523;SDS011;55524;51.380;13.372;2022-12-18T15:37:32;28.63;;;9.73;;
68523;SDS011;55524;51.380;13.372;2022-12-18T15:40:14;26.95;;;9.60;;
68523;SDS011;55524;51.380;13.372;2022-12-18T15:43:16;27.13;;;9.23;;
68523;SDS011;55524;51.380;13.372;2022-12-18T15:48:47;34.70;;;8.88;;
68523;SDS011;55524;51.380;13.372;2022-12-18T15:52:03;34.05;;;9.32;;
68523;SDS011;55524;51.380;13.372;2022-12-18T15:54:53;35.83;;;9.10;;
68523;SDS011;55524;51.380;13.372;2022-12-18T15:57:52;28.00;;;9.23;;
68523;SDS011;55524;51.380;13.372;2022-12-18T16:00:56;145.02;;;14.98;;
68523;SDS011;55524;51.380;13.372;2022-12-18T16:03:44;25.92;;;8.63;;
68523;SDS011;55524;51.380;13.372;2022-12-18T16:06:31;29.63;;;8.93;;
68523;SDS011;55524;51.380;13.372;2022-12-18T16:08:57;26.80;;;9.43;;
68523;SDS011;55524;51.380;13.372;2022-12-18T16:11:39;35.45;;;9.65;;
68523;SDS011;55524;51.380;13.372;2022-12-18T16:16:55;32.55;;;9.25;;
68523;SDS011;55524;51.380;13.372;2022-12-18T16:19:43;22.88;;;8.05;;
68523;SDS011;55524;51.380;13.372;2022-12-18T16:22:18;26.27;;;8.70;;
68523;SDS011;55524;51.380;13.372;2022-12-18T16:24:55;26.38;;;8.48;;
68523;SDS011;55524;51.380;13.372;2022-12-18T16:27:36;26.45;;;7.80;;
68523;SDS011;55524;51.380;13.372;2022-12-18T16:30:18;40.58;;;9.95;;
68523;SDS011;55524;51.380;13.372;2022-12-18T16:33:09;20.85;;;7.90;;
68523;SDS011;55524;51.380;13.372;2022-12-18T16:35:56;30.42;;;8.35;;
68523;SDS011;55524;51.380;13.372;2022-12-18T16:38:22;24.00;;;8.23;;
68523;SDS011;55524;51.380;13.372;2022-12-18T16:40:57;25.90;;;9.05;;
68523;SDS011;55524;51.380;13.372;2022-12-18T16:43:45;23.50;;;8.32;;
68523;SDS011;55524;51.380;13.372;2022-12-18T16:46:23;28.20;;;8.52;;
68523;SDS011;55524;51.380;13.372;2022-12-18T16:48:54;30.55;;;9.25;;
68523;SDS011;55524;51.380;13.372;2022-12-18T16:51:28;27.27;;;8.77;;
68523;SDS011;55524;51.380;13.372;2022-12-18T16:54:10;26.20;;;9.18;;
68523;SDS011;55524;51.380;13.372;2022-12-18T16:56:54;29.67;;;9.20;;
68523;SDS011;55524;51.380;13.372;2022-12-18T16:59:20;28.23;;;9.18;;
68523;SDS011;55524;51.380;13.372;2022-12-18T17:02:06;29.17;;;8.50;;
68523;SDS011;55524;51.380;13.372;2022-12-18T17:05:00;26.63;;;8.57;;
68523;SDS011;55524;51.380;13.372;2022-12-18T17:07:32;29.83;;;9.55;;
68523;SDS011;55524;51.380;13.372;2022-12-18T17:10:16;31.98;;;10.55;;
68523;SDS011;55524;51.380;13.372;2022-12-18T17:13:00;31.52;;;9.63;;
68523;SDS011;55524;51.380;13.372;2022-12-18T17:15:36;46.00;;;14.25;;
68523;SDS011;55524;51.380;13.372;2022-12-18T17:18:05;32.08;;;11.77;;
68523;SDS011;55524;51.380;13.372;2022-12-18T17:20:35;38.10;;;11.85;;
68523;SDS011;55524;51.380;13.372;2022-12-18T17:23:10;39.75;;;11.45;;
68523;SDS011;55524;51.380;13.372;2022-12-18T17:25:59;28.50;;;10.25;;
68523;SDS011;55524;51.380;13.372;2022-12-18T17:28:31;41.03;;;13.02;;
68523;SDS011;55524;51.380;13.372;2022-12-18T17:31:19;34.75;;;13.23;;
68523;SDS011;55524;51.380;13.372;2022-12-18T17:34:05;29.85;;;10.65;;
68523;SDS011;55524;51.380;13.372;2022-12-18T17:36:52;29.08;;;11.13;;
68523;SDS011;55524;51.380;13.372;2022-12-18T17:39:45;27.83;;;9.75;;
68523;SDS011;55524;51.380;13.372;2022-12-18T17:42:24;37.78;;;11.52;;
68523;SDS011;55524;51.380;13.372;2022-12-18T17:45:11;37.17;;;10.68;;
68523;SDS011;55524;51.380;13.372;2022-12-18T17:50:12;27.27;;;9.02;;
68523;SDS011;55524;51.380;13.372;2022-12-18T17:52:41;28.48;;;9.18;;
68523;SDS011;55524;51.380;13.372;2022-12-18T17:55:13;29.20;;;9.35;;
68523;SDS011;55524;51.380;13.372;2022-12-18T17:58:06;29.42;;;9.02;;
68523;SDS011;55524;51.380;13.372;2022-12-18T18:00:37;30.00;;;9.35;;
68523;SDS011;55524;51.380;13.372;2022-12-18T18:03:18;41.35;;;10.57;;
68523;SDS011;55524;51.380;13.372;2022-12-18T18:05:48;32.72;;;10.43;;
68523;SDS011;55524;51.380;13.372;2022-12-18T18:08:43;30.23;;;9.38;;
68523;SDS011;55524;51.380;13.372;2022-12-18T18:11:11;31.25;;;10.10;;
68523;SDS011;55524;51.380;13.372;2022-12-18T18:19:08;29.20;;;10.43;;
68523;SDS011;55524;51.380;13.372;2022-12-18T18:21:43;32.55;;;11.10;;
68523;SDS011;55524;51.380;13.372;2022-12-18T18:24:16;34.58;;;13.02;;
68523;SDS011;55524;51.380;13.372;2022-12-18T18:27:02;28.27;;;10.50;;
68523;SDS011;55524;51.380;13.372;2022-12-18T18:29:47;33.50;;;11.25;;
68523;SDS011;55524;51.380;13.372;2022-12-18T18:32:22;38.22;;;11.63;;
68523;SDS011;55524;51.380;13.372;2022-12-18T18:35:11;32.67;;;9.90;;
68523;SDS011;55524;51.380;13.372;2022-12-18T18:37:38;33.38;;;9.00;;
68523;SDS011;55524;51.380;13.372;2022-12-18T18:40:25;35.35;;;10.25;;
68523;SDS011;55524;51.380;13.372;2022-12-18T18:42:54;26.30;;;9.95;;
68523;SDS011;55524;51.380;13.372;2022-12-18T18:45:21;30.55;;;9.68;;
68523;SDS011;55524;51.380;13.372;2022-12-18T18:47:56;29.90;;;9.48;;
68523;SDS011;55524;51.380;13.372;2022-12-18T18:50:23;32.45;;;10.00;;
68523;SDS011;55524;51.380;13.372;2022-12-18T18:52:58;30.20;;;10.02;;
68523;SDS011;55524;51.380;13.372;2022-12-18T18:55:44;29.25;;;9.32;;
68523;SDS011;55524;51.380;13.372;2022-12-18T18:58:28;27.65;;;9.77;;
68523;SDS011;55524;51.380;13.372;2022-12-18T19:01:00;30.83;;;8.80;;
68523;SDS011;55524;51.380;13.372;2022-12-18T19:03:54;25.48;;;8.95;;
68523;SDS011;55524;51.380;13.372;2022-12-18T19:06:25;27.10;;;8.98;;
68523;SDS011;55524;51.380;13.372;2022-12-18T19:08:57;32.40;;;8.85;;
68523;SDS011;55524;51.380;13.372;2022-12-18T19:11:33;31.45;;;9.02;;
68523;SDS011;55524;51.380;13.372;2022-12-18T19:14:38;47.10;;;11.35;;